createdAt,value
2024-03-26T00:00:40.388Z,19.88
2024-03-26T00:01:41.411Z,19.87
2024-03-26T00:02:40.379Z,19.91
2024-03-26T00:03:40.348Z,19.79
2024-03-26T00:04:40.339Z,19.91
2024-03-26T00:05:40.339Z,19.90
2024-03-26T00:06:40.340Z,19.90
2024-03-26T00:07:40.318Z,19.93
2024-03-26T00:08:40.320Z,19.85
2024-03-26T00:09:40.292Z,19.84
2024-03-26T00:10:40.349Z,19.91
2024-03-26T00:11:40.306Z,19.85
2024-03-26T00:12:40.291Z,19.87
2024-03-26T00:13:40.328Z,19.88
2024-03-26T00:14:40.352Z,19.87
2024-03-26T00:15:40.379Z,19.90
2024-03-26T00:16:40.404Z,19.91
2024-03-26T00:17:40.465Z,19.93
2024-03-26T00:18:40.476Z,19.93
2024-03-26T00:19:40.514Z,19.91
2024-03-26T00:20:40.567Z,19.90
2024-03-26T00:21:40.579Z,19.91
2024-03-26T00:22:40.603Z,19.90
2024-03-26T00:23:40.702Z,19.99
2024-03-26T00:24:40.668Z,19.96
2024-03-26T00:25:40.710Z,19.88
2024-03-26T00:26:40.750Z,19.89
2024-03-26T00:27:40.768Z,19.88
2024-03-26T00:29:40.864Z,19.95
2024-03-26T00:30:40.871Z,19.85
2024-03-26T00:31:40.902Z,19.88
2024-03-26T00:32:40.944Z,19.89
2024-03-26T00:33:40.964Z,19.95
2024-03-26T00:34:40.988Z,19.92
2024-03-26T00:35:41.058Z,19.94
2024-03-26T00:36:41.074Z,19.97
2024-03-26T00:37:41.095Z,19.95
2024-03-26T00:38:41.129Z,19.88
2024-03-26T00:39:41.154Z,19.92
2024-03-26T00:40:41.188Z,19.93
2024-03-26T00:41:41.240Z,19.92
2024-03-26T00:42:41.256Z,19.92
2024-03-26T00:43:41.295Z,19.91
2024-03-26T00:44:41.329Z,19.94
2024-03-26T00:45:41.355Z,19.94
2024-03-26T00:46:41.402Z,19.94
2024-03-26T00:47:41.429Z,19.94
2024-03-26T00:48:41.443Z,19.98
2024-03-26T00:49:41.485Z,19.95
2024-03-26T00:50:41.524Z,20.01
2024-03-26T00:51:41.548Z,19.97
2024-03-26T00:52:41.584Z,19.89
2024-03-26T00:53:41.633Z,19.92
2024-03-26T00:54:41.666Z,19.92
2024-03-26T00:55:41.720Z,20.00
2024-03-26T00:56:41.767Z,19.97
2024-03-26T00:57:41.781Z,19.94
2024-03-26T00:58:41.784Z,19.95
2024-03-26T00:59:41.776Z,19.91
2024-03-26T01:00:41.748Z,19.97
2024-03-26T01:01:41.755Z,19.89
2024-03-26T01:02:41.751Z,19.94
2024-03-26T01:03:41.744Z,19.89
2024-03-26T01:04:41.725Z,20.01
2024-03-26T01:05:41.736Z,20.01
2024-03-26T01:06:41.707Z,19.95
2024-03-26T01:07:41.698Z,20.00
2024-03-26T01:08:41.693Z,19.95
2024-03-26T01:09:41.665Z,19.94
2024-03-26T01:10:41.714Z,19.92
2024-03-26T01:11:41.746Z,19.95
2024-03-26T01:12:41.778Z,19.92
2024-03-26T01:13:41.811Z,19.92
2024-03-26T01:14:41.861Z,19.94
2024-03-26T01:15:41.836Z,19.94
2024-03-26T01:16:41.840Z,19.98
2024-03-26T01:17:41.810Z,19.88
2024-03-26T01:18:41.800Z,19.98
2024-03-26T01:19:41.784Z,19.92
2024-03-26T01:20:41.765Z,19.95
2024-03-26T01:21:41.765Z,19.89
2024-03-26T01:22:41.746Z,19.94
2024-03-26T01:23:41.728Z,19.97
2024-03-26T01:24:41.719Z,19.92
2024-03-26T01:25:41.706Z,19.95
2024-03-26T01:26:41.826Z,20.03
2024-03-26T01:27:41.775Z,19.98
2024-03-26T01:28:41.833Z,19.94
2024-03-26T01:29:41.858Z,19.91
2024-03-26T01:30:41.879Z,19.94
2024-03-26T01:31:41.918Z,19.96
2024-03-26T01:32:41.963Z,19.98
2024-03-26T01:33:41.995Z,19.98
2024-03-26T01:34:42.018Z,19.96
2024-03-26T01:35:42.075Z,19.92
2024-03-26T01:36:42.092Z,19.96
2024-03-26T01:37:42.125Z,20.00
2024-03-26T01:38:42.168Z,19.95
2024-03-26T01:39:42.197Z,19.84
2024-03-26T01:40:42.228Z,19.97
2024-03-26T01:41:42.297Z,19.94
2024-03-26T01:42:42.303Z,19.94
2024-03-26T01:43:42.333Z,20.06
2024-03-26T01:44:42.380Z,19.98
2024-03-26T01:45:42.400Z,19.98
2024-03-26T01:46:42.462Z,19.96
2024-03-26T01:47:42.472Z,19.90
2024-03-26T01:48:42.497Z,19.97
2024-03-26T01:49:42.533Z,19.95
2024-03-26T01:50:42.619Z,19.96
2024-03-26T01:51:42.618Z,19.95
2024-03-26T01:52:42.657Z,19.94
2024-03-26T01:53:42.687Z,19.90
2024-03-26T01:54:42.712Z,19.94
2024-03-26T01:55:42.759Z,19.96
2024-03-26T01:56:42.801Z,20.00
2024-03-26T01:57:42.839Z,20.01
2024-03-26T01:58:42.867Z,19.95
2024-03-26T01:59:42.911Z,19.98
2024-03-26T02:00:42.930Z,20.02
2024-03-26T02:01:42.974Z,20.00
2024-03-26T02:02:43.034Z,19.96
2024-03-26T02:03:42.993Z,19.98
2024-03-26T02:04:42.978Z,19.94
2024-03-26T02:05:42.976Z,20.01
2024-03-26T02:06:42.948Z,20.00
2024-03-26T02:07:42.929Z,20.04
2024-03-26T02:08:42.967Z,20.01
2024-03-26T02:09:42.924Z,19.98
2024-03-26T02:10:42.911Z,19.98
2024-03-26T02:11:42.876Z,19.96
2024-03-26T02:12:42.875Z,19.96
2024-03-26T02:13:42.876Z,19.95
2024-03-26T02:14:42.890Z,19.98
2024-03-26T02:15:42.917Z,19.98
2024-03-26T02:16:42.961Z,20.02
2024-03-26T02:17:43.017Z,20.00
2024-03-26T02:18:43.055Z,19.95
2024-03-26T02:19:43.097Z,20.01
2024-03-26T02:20:43.804Z,20.02
2024-03-26T02:21:43.153Z,19.98
2024-03-26T02:22:43.184Z,19.96
2024-03-26T02:23:43.260Z,19.98
2024-03-26T02:24:43.287Z,20.01
2024-03-26T02:25:43.316Z,19.96
2024-03-26T02:26:43.355Z,19.99
2024-03-26T02:27:43.343Z,20.01
2024-03-26T02:28:43.314Z,19.99
2024-03-26T02:29:43.317Z,19.98
2024-03-26T02:30:43.299Z,20.02
2024-03-26T02:31:43.273Z,19.96
2024-03-26T02:32:43.269Z,20.01
2024-03-26T02:33:43.253Z,20.01
2024-03-26T02:34:43.219Z,19.98
2024-03-26T02:35:43.227Z,19.99
2024-03-26T02:36:43.188Z,19.98
2024-03-26T02:37:43.185Z,20.01
2024-03-26T02:38:43.170Z,19.98
2024-03-26T02:39:43.159Z,20.07
2024-03-26T02:40:43.211Z,20.04
2024-03-26T02:41:43.250Z,20.02
2024-03-26T02:42:43.280Z,20.04
2024-03-26T02:43:43.310Z,20.04
2024-03-26T02:44:43.389Z,20.05
2024-03-26T02:45:43.391Z,19.99
2024-03-26T02:46:43.455Z,20.05
2024-03-26T02:47:43.473Z,20.04
2024-03-26T02:48:43.520Z,20.05
2024-03-26T02:49:43.542Z,20.04
2024-03-26T02:50:43.602Z,20.05
2024-03-26T02:51:43.646Z,20.07
2024-03-26T02:52:43.657Z,20.02
2024-03-26T02:53:43.692Z,20.10
2024-03-26T02:54:43.719Z,20.05
2024-03-26T02:55:43.757Z,20.05
2024-03-26T02:56:43.826Z,20.05
2024-03-26T02:57:43.817Z,20.07
2024-03-26T02:58:43.857Z,20.11
2024-03-26T02:59:43.971Z,20.08
2024-03-26T03:00:43.940Z,19.97
2024-03-26T03:01:43.978Z,20.07
2024-03-26T03:02:46.068Z,20.07
2024-03-26T03:03:44.001Z,20.05
2024-03-26T03:04:43.999Z,20.08
2024-03-26T03:05:43.993Z,20.07
2024-03-26T03:06:43.952Z,20.07
2024-03-26T03:07:43.933Z,20.08
2024-03-26T03:08:43.925Z,20.10
2024-03-26T03:09:43.928Z,20.10
2024-03-26T03:10:43.905Z,20.13
2024-03-26T03:11:43.901Z,20.07
2024-03-26T03:12:43.873Z,20.02
2024-03-26T03:13:43.855Z,20.05
2024-03-26T03:14:43.853Z,20.08
2024-03-26T03:15:43.837Z,20.07
2024-03-26T03:16:43.901Z,20.11
2024-03-26T03:17:43.817Z,20.05
2024-03-26T03:18:43.808Z,20.08
2024-03-26T03:19:43.792Z,20.05
2024-03-26T03:20:43.806Z,20.08
2024-03-26T03:21:43.770Z,20.02
2024-03-26T03:22:43.743Z,20.10
2024-03-26T03:23:43.778Z,20.04
2024-03-26T03:24:43.726Z,20.08
2024-03-26T03:25:43.698Z,20.10
2024-03-26T03:26:43.702Z,20.10
2024-03-26T03:27:43.683Z,20.07
2024-03-26T03:28:43.674Z,20.08
2024-03-26T03:29:43.672Z,20.08
2024-03-26T03:30:43.647Z,20.14
2024-03-26T03:31:43.642Z,20.11
2024-03-26T03:32:43.641Z,20.05
2024-03-26T03:33:43.613Z,20.10
2024-03-26T03:34:43.612Z,20.08
2024-03-26T03:35:43.614Z,20.11
2024-03-26T03:36:43.596Z,20.09
2024-03-26T03:37:43.587Z,20.07
2024-03-26T03:38:43.611Z,20.12
2024-03-26T03:39:43.540Z,20.14
2024-03-26T03:40:43.533Z,20.16
2024-03-26T03:41:43.534Z,20.12
2024-03-26T03:42:43.496Z,20.10
2024-03-26T03:43:43.482Z,20.11
2024-03-26T03:44:43.490Z,20.07
2024-03-26T03:45:43.452Z,20.07
2024-03-26T03:46:43.453Z,20.09
2024-03-26T03:47:43.434Z,20.04
2024-03-26T03:48:43.478Z,20.11
2024-03-26T03:49:43.518Z,20.12
2024-03-26T03:50:43.581Z,20.09
2024-03-26T03:51:43.619Z,20.16
2024-03-26T03:52:43.642Z,20.11
2024-03-26T03:53:43.694Z,20.11
2024-03-26T03:54:43.730Z,20.09
2024-03-26T03:55:43.776Z,20.12
2024-03-26T03:56:43.774Z,20.11
2024-03-26T03:57:43.766Z,20.14
2024-03-26T03:58:43.733Z,20.16
2024-03-26T03:59:43.743Z,20.14
2024-03-26T04:00:43.717Z,20.16
2024-03-26T04:01:43.715Z,20.09
2024-03-26T04:02:43.713Z,20.18
2024-03-26T04:03:43.688Z,20.17
2024-03-26T04:04:43.679Z,20.11
2024-03-26T04:05:43.666Z,20.12
2024-03-26T04:06:43.704Z,20.12
2024-03-26T04:07:43.739Z,20.14
2024-03-26T04:08:43.770Z,20.15
2024-03-26T04:09:43.810Z,20.15
2024-03-26T04:10:43.854Z,20.15
2024-03-26T04:11:43.890Z,20.14
2024-03-26T04:12:43.938Z,20.20
2024-03-26T04:13:43.968Z,20.12
2024-03-26T04:14:44.013Z,20.20
2024-03-26T04:15:44.054Z,20.17
2024-03-26T04:16:44.095Z,20.17
2024-03-26T04:17:44.136Z,20.15
2024-03-26T04:18:44.177Z,20.18
2024-03-26T04:19:44.189Z,20.16
2024-03-26T04:20:44.220Z,20.14
2024-03-26T04:21:44.261Z,20.10
2024-03-26T04:22:44.294Z,20.18
2024-03-26T04:23:44.329Z,20.18
2024-03-26T04:24:44.402Z,20.14
2024-03-26T04:25:44.415Z,20.18
2024-03-26T04:26:44.463Z,20.12
2024-03-26T04:27:44.486Z,20.18
2024-03-26T04:28:44.537Z,20.18
2024-03-26T04:29:51.770Z,20.23
2024-03-26T04:30:51.737Z,20.17
2024-03-26T04:31:59.023Z,20.21
2024-03-26T04:32:59.041Z,20.20
2024-03-26T04:33:59.040Z,20.18
2024-03-26T04:34:59.063Z,20.21
2024-03-26T04:35:59.082Z,20.17
2024-03-26T04:36:59.099Z,20.20
2024-03-26T04:37:59.140Z,20.15
2024-03-26T04:38:59.135Z,20.23
2024-03-26T04:39:59.168Z,20.20
2024-03-26T04:40:59.195Z,20.18
2024-03-26T04:41:59.211Z,20.24
2024-03-26T04:42:59.239Z,20.21
2024-03-26T04:43:59.253Z,20.26
2024-03-26T04:44:59.283Z,20.23
2024-03-26T04:45:59.297Z,20.20
2024-03-26T04:46:59.312Z,20.23
2024-03-26T04:47:59.345Z,20.21
2024-03-26T04:48:59.358Z,20.18
2024-03-26T04:49:59.380Z,20.18
2024-03-26T04:50:59.390Z,20.20
2024-03-26T04:51:59.457Z,20.18
2024-03-26T04:52:59.451Z,20.26
2024-03-26T04:53:59.473Z,20.32
2024-03-26T04:54:59.486Z,20.26
2024-03-26T04:55:59.506Z,20.24
2024-03-26T04:56:59.584Z,20.27
2024-03-26T04:57:59.552Z,20.24
2024-03-26T04:58:59.558Z,20.26
2024-03-26T04:59:59.619Z,20.26
2024-03-26T05:00:59.690Z,20.23
2024-03-26T05:01:59.738Z,20.21
2024-03-26T05:02:59.813Z,20.21
2024-03-26T05:03:59.858Z,20.27
2024-03-26T05:04:59.918Z,20.24
2024-03-26T05:05:59.992Z,20.24
2024-03-26T05:07:00.087Z,20.26
2024-03-26T05:08:00.122Z,20.24
2024-03-26T05:09:00.175Z,20.24
2024-03-26T05:10:00.238Z,20.24
2024-03-26T05:11:00.305Z,20.32
2024-03-26T05:12:00.376Z,20.23
2024-03-26T05:13:00.421Z,20.24
2024-03-26T05:14:00.484Z,20.24
2024-03-26T05:15:00.559Z,20.29
2024-03-26T05:16:02.288Z,20.29
2024-03-26T05:17:00.626Z,20.27
2024-03-26T05:18:00.653Z,20.27
2024-03-26T05:19:00.672Z,20.30
2024-03-26T05:20:00.673Z,20.30
2024-03-26T05:21:00.697Z,20.27
2024-03-26T05:22:00.733Z,20.27
2024-03-26T05:23:00.756Z,20.30
2024-03-26T05:24:00.848Z,20.30
2024-03-26T05:25:00.775Z,20.30
2024-03-26T05:26:00.808Z,20.27
2024-03-26T05:27:00.778Z,20.24
2024-03-26T05:28:00.798Z,20.29
2024-03-26T05:29:00.839Z,20.28
2024-03-26T05:30:00.849Z,20.21
2024-03-26T05:31:00.832Z,20.27
2024-03-26T05:32:00.864Z,20.29
2024-03-26T05:33:00.859Z,20.30
2024-03-26T05:34:00.890Z,20.29
2024-03-26T05:35:00.900Z,20.32
2024-03-26T05:36:00.936Z,20.24
2024-03-26T05:37:00.982Z,20.22
2024-03-26T05:38:00.939Z,20.27
2024-03-26T05:39:00.941Z,20.25
2024-03-26T05:40:00.970Z,20.27
2024-03-26T05:41:00.986Z,20.29
2024-03-26T05:42:01.016Z,20.32
2024-03-26T05:43:01.014Z,20.30
2024-03-26T05:44:01.039Z,20.27
2024-03-26T05:45:01.066Z,20.32
2024-03-26T05:46:01.054Z,20.29
2024-03-26T05:47:01.078Z,20.27
2024-03-26T05:48:01.627Z,20.25
2024-03-26T05:49:01.090Z,20.30
2024-03-26T05:50:01.132Z,20.27
2024-03-26T05:51:01.139Z,20.34
2024-03-26T05:52:01.183Z,20.29
2024-03-26T05:53:01.170Z,20.30
2024-03-26T05:54:01.193Z,20.26
2024-03-26T05:55:01.202Z,20.24
2024-03-26T05:56:01.199Z,20.24
2024-03-26T05:57:01.239Z,20.33
2024-03-26T05:58:01.236Z,20.27
2024-03-26T05:59:01.264Z,20.33
2024-03-26T06:00:01.284Z,20.32
2024-03-26T06:01:01.293Z,20.29
2024-03-26T06:02:01.295Z,20.29
2024-03-26T06:03:01.313Z,20.25
2024-03-26T06:04:02.779Z,20.32
2024-03-26T06:05:01.375Z,20.24
2024-03-26T06:06:01.399Z,20.24
2024-03-26T06:07:01.396Z,20.24
2024-03-26T06:08:01.393Z,20.34
2024-03-26T06:09:01.410Z,20.26
2024-03-26T06:10:01.430Z,20.33
2024-03-26T06:11:01.471Z,20.32
2024-03-26T06:12:01.529Z,20.34
2024-03-26T06:13:04.104Z,20.27
2024-03-26T06:14:01.543Z,20.32
2024-03-26T06:15:01.526Z,20.26
2024-03-26T06:16:01.557Z,20.25
2024-03-26T06:17:01.541Z,20.27
2024-03-26T06:19:01.584Z,20.31
2024-03-26T06:20:01.779Z,20.33
2024-03-26T06:21:01.660Z,20.32
2024-03-26T06:22:01.653Z,20.34
2024-03-26T06:23:01.674Z,20.27
2024-03-26T06:24:01.682Z,20.30
2024-03-26T06:25:01.747Z,20.26
2024-03-26T06:26:01.714Z,20.24
2024-03-26T06:27:01.762Z,20.29
2024-03-26T06:28:01.826Z,20.30
2024-03-26T06:29:01.788Z,20.27
2024-03-26T06:30:01.831Z,20.27
2024-03-26T06:31:01.824Z,20.30
2024-03-26T06:32:01.847Z,20.27
2024-03-26T06:33:01.859Z,20.23
2024-03-26T06:34:01.868Z,20.21
2024-03-26T06:35:01.929Z,20.24
2024-03-26T06:36:01.933Z,20.26
2024-03-26T06:37:01.951Z,20.23
2024-03-26T06:38:01.963Z,20.24
2024-03-26T06:39:02.020Z,20.30
2024-03-26T06:40:02.020Z,20.23
2024-03-26T06:41:02.029Z,20.23
2024-03-26T06:42:02.063Z,20.30
2024-03-26T06:43:02.058Z,20.29
2024-03-26T06:44:02.081Z,20.33
2024-03-26T06:45:02.085Z,20.32
2024-03-26T06:46:02.112Z,20.24
2024-03-26T06:47:02.124Z,20.21
2024-03-26T06:48:02.144Z,20.27
2024-03-26T06:49:02.161Z,20.23
2024-03-26T06:50:02.199Z,20.24
2024-03-26T06:51:02.204Z,20.26
2024-03-26T06:52:02.231Z,20.34
2024-03-26T06:53:02.236Z,20.30
2024-03-26T06:54:02.304Z,20.27
2024-03-26T06:55:02.397Z,20.24
2024-03-26T06:56:02.453Z,20.21
2024-03-26T06:57:02.563Z,20.36
2024-03-26T06:58:02.610Z,20.27
2024-03-26T06:59:02.653Z,20.30
2024-03-26T07:00:02.723Z,20.26
2024-03-26T07:01:02.785Z,20.27
2024-03-26T07:02:02.858Z,20.23
2024-03-26T07:03:02.906Z,20.28
2024-03-26T07:04:02.993Z,20.31
2024-03-26T07:05:03.047Z,20.24
2024-03-26T07:06:03.095Z,20.21
2024-03-26T07:07:03.116Z,20.21
2024-03-26T07:08:03.124Z,20.26
2024-03-26T07:09:03.160Z,20.23
2024-03-26T07:10:03.137Z,20.26
2024-03-26T07:11:03.142Z,20.29
2024-03-26T07:12:03.186Z,20.23
2024-03-26T07:13:03.184Z,20.23
2024-03-26T07:14:03.188Z,20.18
2024-03-26T07:15:03.210Z,20.29
2024-03-26T07:16:03.217Z,20.18
2024-03-26T07:17:03.235Z,20.14
2024-03-26T07:18:03.248Z,20.19
2024-03-26T07:19:03.258Z,20.23
2024-03-26T07:20:03.292Z,20.20
2024-03-26T07:21:03.286Z,20.16
2024-03-26T07:22:03.324Z,20.20
2024-03-26T07:23:03.314Z,20.26
2024-03-26T07:24:03.345Z,20.16
2024-03-26T07:25:03.342Z,20.22
2024-03-26T07:26:03.355Z,20.19
2024-03-26T07:27:03.374Z,20.19
2024-03-26T07:28:03.380Z,20.16
2024-03-26T07:29:03.388Z,20.18
2024-03-26T07:30:03.425Z,20.16
2024-03-26T07:31:03.426Z,20.07
2024-03-26T07:32:03.437Z,20.10
2024-03-26T07:33:03.453Z,20.25
2024-03-26T07:34:03.458Z,20.15
2024-03-26T07:35:03.468Z,20.10
2024-03-26T07:36:03.479Z,20.09
2024-03-26T07:37:03.512Z,20.13
2024-03-26T07:38:03.533Z,20.16
2024-03-26T07:39:03.556Z,20.13
2024-03-26T07:40:03.582Z,20.10
2024-03-26T07:41:03.570Z,20.13
2024-03-26T07:42:03.660Z,20.07
2024-03-26T07:43:06.469Z,20.09
2024-03-26T07:44:04.677Z,20.13
2024-03-26T07:45:03.784Z,20.11
2024-03-26T07:46:03.728Z,20.06
2024-03-26T07:47:03.687Z,20.09
2024-03-26T07:48:03.668Z,20.10
2024-03-26T07:49:03.689Z,20.06
2024-03-26T07:50:03.736Z,20.12
2024-03-26T07:51:03.720Z,20.05
2024-03-26T07:52:03.762Z,20.09
2024-03-26T07:53:03.788Z,20.03
2024-03-26T07:54:03.866Z,20.05
2024-03-26T07:55:03.771Z,20.00
2024-03-26T07:56:03.833Z,20.01
2024-03-26T07:57:03.936Z,20.03
2024-03-26T07:58:03.958Z,20.06
2024-03-26T07:59:03.826Z,20.06
2024-03-26T08:00:03.848Z,20.05
2024-03-26T08:01:03.974Z,20.00
2024-03-26T08:02:03.874Z,20.00
2024-03-26T08:03:03.959Z,20.03
2024-03-26T08:04:03.931Z,20.06
2024-03-26T08:05:03.885Z,19.94
2024-03-26T08:06:03.973Z,20.01
2024-03-26T08:07:03.979Z,20.02
2024-03-26T08:08:04.022Z,19.94
2024-03-26T08:09:04.113Z,19.97
2024-03-26T08:10:04.180Z,20.05
2024-03-26T08:11:04.186Z,20.00
2024-03-26T08:12:04.292Z,19.99
2024-03-26T08:13:04.351Z,20.02
2024-03-26T08:14:04.316Z,19.97
2024-03-26T08:15:04.470Z,19.99
2024-03-26T08:16:04.467Z,19.98
2024-03-26T08:17:04.571Z,19.97
2024-03-26T08:18:04.623Z,19.96
2024-03-26T08:19:04.583Z,20.00
2024-03-26T08:20:04.626Z,19.96
2024-03-26T08:21:04.739Z,19.97
2024-03-26T08:22:04.750Z,20.00
2024-03-26T08:23:04.762Z,20.01
2024-03-26T08:24:04.829Z,19.99
2024-03-26T08:25:04.866Z,19.91
2024-03-26T08:26:04.921Z,19.96
2024-03-26T08:27:04.971Z,19.98
2024-03-26T08:28:04.986Z,19.99
2024-03-26T08:29:05.087Z,20.01
2024-03-26T08:30:07.901Z,20.02
2024-03-26T08:31:05.086Z,20.02
2024-03-26T08:32:05.114Z,19.99
2024-03-26T08:33:05.166Z,20.04
2024-03-26T08:34:05.165Z,20.10
2024-03-26T08:35:05.159Z,20.12
2024-03-26T08:36:05.288Z,20.04
2024-03-26T08:37:05.230Z,20.10
2024-03-26T08:38:05.207Z,20.07
2024-03-26T08:39:05.248Z,20.05
2024-03-26T08:40:05.234Z,20.07
2024-03-26T08:41:05.239Z,20.02
2024-03-26T08:42:05.263Z,20.01
2024-03-26T08:43:05.268Z,19.96
2024-03-26T08:44:05.276Z,20.04
2024-03-26T08:45:06.972Z,20.04
2024-03-26T08:46:05.291Z,19.96
2024-03-26T08:47:05.326Z,20.00
2024-03-26T08:48:05.327Z,20.01
2024-03-26T08:49:05.341Z,19.98
2024-03-26T08:50:05.353Z,20.07
2024-03-26T08:51:05.357Z,19.98
2024-03-26T08:52:05.373Z,20.00
2024-03-26T08:53:05.389Z,20.02
2024-03-26T08:54:05.393Z,20.04
2024-03-26T08:55:05.425Z,20.06
2024-03-26T08:56:15.136Z,20.01
2024-03-26T08:57:06.453Z,20.01
2024-03-26T08:58:05.463Z,20.05
2024-03-26T08:59:05.470Z,20.07
2024-03-26T09:00:05.481Z,20.03
2024-03-26T09:01:05.507Z,20.05
2024-03-26T09:02:05.545Z,20.10
2024-03-26T09:03:05.597Z,20.07
2024-03-26T09:04:05.550Z,20.05
2024-03-26T09:05:05.564Z,20.02
2024-03-26T09:06:05.588Z,20.05
2024-03-26T09:07:05.596Z,20.04
2024-03-26T09:08:05.585Z,20.04
2024-03-26T09:09:05.610Z,20.12
2024-03-26T09:10:05.624Z,20.10
2024-03-26T09:11:05.628Z,20.04
2024-03-26T09:12:05.628Z,20.13
2024-03-26T09:13:05.643Z,20.07
2024-03-26T09:14:05.642Z,20.13
2024-03-26T09:15:05.658Z,20.15
2024-03-26T09:16:05.664Z,20.12
2024-03-26T09:17:05.692Z,20.09
2024-03-26T09:18:05.835Z,20.07
2024-03-26T09:19:05.733Z,20.13
2024-03-26T09:20:05.724Z,20.08
2024-03-26T09:21:05.703Z,20.14
2024-03-26T09:22:05.700Z,20.15
2024-03-26T09:23:05.702Z,20.11
2024-03-26T09:24:06.461Z,20.14
2024-03-26T09:25:05.719Z,20.05
2024-03-26T09:26:05.735Z,20.06
2024-03-26T09:27:05.728Z,20.26
2024-03-26T09:28:05.727Z,20.28
2024-03-26T09:29:05.739Z,20.28
2024-03-26T09:30:05.763Z,20.37
2024-03-26T09:31:07.576Z,20.49
2024-03-26T09:32:05.748Z,20.05
2024-03-26T09:33:05.747Z,19.08
2024-03-26T09:34:05.766Z,17.50
2024-03-26T09:35:05.797Z,17.99
2024-03-26T09:36:05.791Z,18.57
2024-03-26T09:37:05.815Z,17.95
2024-03-26T09:38:05.846Z,18.37
2024-03-26T09:39:08.362Z,18.67
2024-03-26T09:40:06.160Z,18.84
2024-03-26T09:41:06.046Z,18.89
2024-03-26T09:42:05.923Z,18.99
2024-03-26T09:43:05.959Z,19.21
2024-03-26T09:44:05.948Z,19.32
2024-03-26T09:45:06.986Z,19.37
2024-03-26T09:46:05.973Z,19.43
2024-03-26T09:47:05.988Z,19.38
2024-03-26T09:48:05.990Z,19.39
2024-03-26T09:49:05.999Z,19.32
2024-03-26T09:50:06.024Z,19.32
2024-03-26T09:51:06.026Z,19.36
2024-03-26T09:52:06.044Z,19.35
2024-03-26T09:53:06.030Z,19.27
2024-03-26T09:54:06.035Z,19.30
2024-03-26T09:55:06.062Z,19.32
2024-03-26T09:56:06.047Z,19.31
2024-03-26T09:57:06.056Z,19.28
2024-03-26T09:58:06.050Z,19.34
2024-03-26T09:59:06.033Z,19.29
2024-03-26T10:00:06.028Z,19.33
2024-03-26T10:01:06.047Z,19.26
2024-03-26T10:02:06.049Z,19.28
2024-03-26T10:03:06.051Z,19.28
2024-03-26T10:04:06.056Z,19.26
2024-03-26T10:05:06.057Z,19.28
2024-03-26T10:06:06.060Z,19.28
2024-03-26T10:07:06.065Z,19.31
2024-03-26T10:08:06.085Z,19.31
2024-03-26T10:09:06.092Z,19.36
2024-03-26T10:10:06.064Z,19.38
2024-03-26T10:11:06.087Z,19.42
2024-03-26T10:12:06.090Z,19.47
2024-03-26T10:13:06.052Z,19.51
2024-03-26T10:14:06.057Z,19.51
2024-03-26T10:15:06.071Z,19.62
2024-03-26T10:16:06.083Z,19.67
2024-03-26T10:17:06.094Z,19.69
2024-03-26T10:18:06.075Z,19.59
2024-03-26T10:19:06.088Z,18.56
2024-03-26T10:20:06.109Z,17.85
2024-03-26T10:21:06.124Z,18.08
2024-03-26T10:22:06.148Z,18.11
2024-03-26T10:23:06.146Z,18.39
2024-03-26T10:24:06.189Z,18.57
2024-03-26T10:25:06.177Z,18.95
2024-03-26T10:26:06.184Z,18.50
2024-03-26T10:27:06.209Z,18.39
2024-03-26T10:28:06.205Z,18.46
2024-03-26T10:29:06.259Z,18.68
2024-03-26T10:30:06.348Z,18.66
2024-03-26T10:31:06.371Z,18.72
2024-03-26T10:32:06.436Z,18.79
2024-03-26T10:33:06.503Z,18.85
2024-03-26T10:34:06.535Z,19.94
2024-03-26T10:35:06.584Z,19.61
2024-03-26T10:36:06.639Z,19.50
2024-03-26T10:37:06.684Z,19.40
2024-03-26T10:38:13.125Z,19.37
2024-03-26T10:39:07.763Z,19.43
2024-03-26T10:40:06.732Z,19.39
2024-03-26T10:41:06.744Z,19.42
2024-03-26T10:42:06.750Z,19.42
2024-03-26T10:43:06.744Z,19.39
2024-03-26T10:44:06.753Z,19.38
2024-03-26T10:45:06.767Z,19.45
2024-03-26T10:46:08.332Z,19.31
2024-03-26T10:47:06.778Z,19.33
2024-03-26T10:48:06.790Z,19.29
2024-03-26T10:49:06.800Z,19.24
2024-03-26T10:50:06.785Z,19.41
2024-03-26T10:51:06.802Z,19.26
2024-03-26T10:52:06.799Z,19.32
2024-03-26T10:53:06.789Z,19.26
2024-03-26T10:54:06.794Z,19.31
2024-03-26T10:55:06.805Z,19.38
2024-03-26T10:56:06.826Z,19.25
2024-03-26T10:57:06.837Z,19.15
2024-03-26T10:58:06.812Z,19.19
2024-03-26T10:59:06.879Z,19.27
2024-03-26T11:00:08.421Z,19.28
2024-03-26T11:01:06.987Z,19.18
2024-03-26T11:02:07.024Z,19.22
2024-03-26T11:03:07.040Z,19.27
2024-03-26T11:04:07.056Z,19.23
2024-03-26T11:05:07.066Z,19.21
2024-03-26T11:06:07.111Z,19.24
2024-03-26T11:07:07.131Z,19.23
2024-03-26T11:08:10.076Z,19.18
2024-03-26T11:09:07.169Z,19.26
2024-03-26T11:10:07.175Z,19.32
2024-03-26T11:11:07.172Z,19.26
2024-03-26T11:12:07.188Z,19.29
2024-03-26T11:13:07.156Z,19.28
2024-03-26T11:14:07.166Z,19.31
2024-03-26T11:15:07.170Z,19.26
2024-03-26T11:16:10.487Z,19.28
2024-03-26T11:17:07.299Z,19.34
2024-03-26T11:18:07.181Z,19.32
2024-03-26T11:19:07.151Z,19.34
2024-03-26T11:20:07.164Z,19.29
2024-03-26T11:21:07.172Z,19.35
2024-03-26T11:22:07.175Z,19.41
2024-03-26T11:23:07.163Z,19.53
2024-03-26T11:24:07.167Z,19.48
2024-03-26T11:25:07.143Z,19.50
2024-03-26T11:26:07.153Z,19.47
2024-03-26T11:27:09.361Z,19.47
2024-03-26T11:28:07.224Z,19.41
2024-03-26T11:29:07.265Z,19.44
2024-03-26T11:30:07.353Z,19.37
2024-03-26T11:31:07.376Z,19.38
2024-03-26T11:32:07.436Z,19.40
2024-03-26T11:33:07.502Z,19.34
2024-03-26T11:34:07.484Z,19.53
2024-03-26T11:35:07.532Z,19.34
2024-03-26T11:36:07.589Z,19.47
2024-03-26T11:37:07.643Z,19.44
2024-03-26T11:38:07.643Z,19.40
2024-03-26T11:39:07.704Z,19.44
2024-03-26T11:40:07.755Z,19.38
2024-03-26T11:41:08.077Z,19.49
2024-03-26T11:42:07.722Z,19.42
2024-03-26T11:43:07.763Z,19.47
2024-03-26T11:44:07.819Z,19.49
2024-03-26T11:45:07.858Z,19.40
2024-03-26T11:46:07.875Z,19.46
2024-03-26T11:47:07.911Z,19.42
2024-03-26T11:48:07.987Z,19.36
2024-03-26T11:49:08.063Z,19.40
2024-03-26T11:50:08.107Z,19.36
2024-03-26T11:51:08.164Z,19.35
2024-03-26T11:52:08.218Z,19.41
2024-03-26T11:53:08.246Z,19.36
2024-03-26T11:54:08.343Z,19.29
2024-03-26T11:55:08.340Z,19.35
2024-03-26T11:56:08.366Z,19.34
2024-03-26T11:57:08.433Z,19.30
2024-03-26T11:58:08.516Z,19.33
2024-03-26T11:59:08.510Z,19.33
2024-03-26T12:00:08.598Z,19.31
2024-03-26T12:01:08.598Z,19.35
2024-03-26T12:02:08.671Z,19.35
2024-03-26T12:03:10.032Z,19.35
2024-03-26T12:04:08.740Z,19.35
2024-03-26T12:05:08.807Z,19.29
2024-03-26T12:06:08.858Z,19.35
2024-03-26T12:07:08.882Z,19.33
2024-03-26T12:08:08.956Z,19.27
2024-03-26T12:09:09.008Z,19.35
2024-03-26T12:10:09.051Z,19.34
2024-03-26T12:11:09.100Z,19.35
2024-03-26T12:12:09.151Z,19.35
2024-03-26T12:13:09.174Z,19.31
2024-03-26T12:14:09.209Z,19.27
2024-03-26T12:15:09.287Z,19.30
2024-03-26T12:16:09.322Z,19.29
2024-03-26T12:17:09.340Z,19.27
2024-03-26T12:18:09.387Z,19.29
2024-03-26T12:19:09.412Z,19.24
2024-03-26T12:20:09.468Z,19.24
2024-03-26T12:21:09.518Z,19.27
2024-03-26T12:22:09.553Z,19.35
2024-03-26T12:23:09.591Z,19.25
2024-03-26T12:24:09.646Z,19.33
2024-03-26T12:25:09.670Z,19.37
2024-03-26T12:26:09.724Z,19.27
2024-03-26T12:27:09.767Z,19.28
2024-03-26T12:28:09.799Z,19.28
2024-03-26T12:29:09.809Z,19.31
2024-03-26T12:30:09.839Z,19.39
2024-03-26T12:31:09.842Z,19.34
2024-03-26T12:32:09.846Z,19.41
2024-03-26T12:33:09.882Z,19.41
2024-03-26T12:34:09.888Z,19.34
2024-03-26T12:35:09.897Z,19.36
2024-03-26T12:36:09.954Z,19.33
2024-03-26T12:37:09.925Z,19.42
2024-03-26T12:38:09.954Z,19.40
2024-03-26T12:39:09.975Z,19.37
2024-03-26T12:40:09.997Z,19.34
2024-03-26T12:41:09.970Z,19.30
2024-03-26T12:42:10.014Z,19.31
2024-03-26T12:43:10.054Z,19.30
2024-03-26T12:44:10.086Z,19.24
2024-03-26T12:45:10.087Z,19.30
2024-03-26T12:47:10.131Z,19.31
2024-03-26T12:48:10.187Z,19.34
2024-03-26T12:49:10.168Z,19.30
2024-03-26T12:50:10.186Z,19.33
2024-03-26T12:51:10.225Z,19.27
2024-03-26T12:52:10.218Z,19.27
2024-03-26T12:53:10.251Z,19.34
2024-03-26T12:54:10.286Z,19.36
2024-03-26T12:56:10.319Z,19.43
2024-03-26T12:57:10.364Z,19.35